Time;durP1;ratioP1;P1;durP2;ratioP2;P2;SDS_P1;SDS_P2;PMS_P1;PMS_P2;Temp;Humidity;BMP_temperature;BMP_pressure;BME280_temperature;BME280_humidity;BME280_pressure;Samples;Min_cycle;Max_cycle;Signal;HPM_P1;HPM_P2
2021/06/09 00:01:43;;;;;;;2.60;1.70;;;17.20;98.00;;;;;;5070034;28;21115;-68
2021/06/09 00:04:09;;;;;;;2.73;1.70;;;17.30;98.00;;;;;;5072760;28;20981;-67
2021/06/09 00:06:38;;;;;;;1.40;1.30;;;17.30;98.00;;;;;;5070007;28;20544;-68
2021/06/09 00:09:06;;;;;;;3.20;2.03;;;17.30;98.00;;;;;;5072739;28;20465;-70
2021/06/09 00:11:33;;;;;;;4.10;2.70;;;17.10;98.00;;;;;;5069832;28;20956;-69
2021/06/09 00:14:00;;;;;;;3.10;1.90;;;17.10;98.00;;;;;;5072720;28;20808;-68
2021/06/09 00:16:26;;;;;;;3.90;2.60;;;17.00;98.00;;;;;;5069742;28;20511;-69
2021/06/09 00:18:53;;;;;;;4.53;2.27;;;16.90;98.00;;;;;;5072674;28;20493;-68
2021/06/09 00:21:19;;;;;;;1.67;1.50;;;16.80;98.00;;;;;;5069657;28;20476;-68
2021/06/09 00:23:48;;;;;;;2.40;1.97;;;16.80;98.00;;;;;;5072271;28;20504;-68
2021/06/09 00:26:18;;;;;;;2.77;2.50;;;16.80;98.00;;;;;;5069317;28;20514;-68
2021/06/09 00:28:46;;;;;;;3.30;2.57;;;16.70;98.00;;;;;;5072204;28;20453;-69
2021/06/09 00:31:13;;;;;;;2.47;1.93;;;16.80;98.00;;;;;;5069531;28;21004;-71
2021/06/09 00:33:40;;;;;;;3.67;2.20;;;16.90;98.00;;;;;;5072065;28;20475;-68
2021/06/09 00:36:07;;;;;;;1.87;1.40;;;16.80;98.00;;;;;;5071659;28;20523;-67
2021/06/09 00:38:34;;;;;;;3.70;2.20;;;16.70;98.00;;;;;;5072439;28;20530;-68
2021/06/09 00:41:03;;;;;;;3.43;2.13;;;16.60;98.00;;;;;;5070937;28;20482;-67
2021/06/09 00:43:34;;;;;;;1.73;1.63;;;16.60;98.00;;;;;;5069563;28;21000;-68
2021/06/09 00:46:03;;;;;;;2.50;2.20;;;16.60;98.00;;;;;;5072131;28;20456;-68
2021/06/09 00:48:31;;;;;;;3.40;2.60;;;16.60;98.00;;;;;;5069389;28;20451;-67
2021/06/09 00:51:00;;;;;;;4.90;2.57;;;16.60;98.00;;;;;;5070902;28;20457;-68
2021/06/09 00:53:32;;;;;;;1.63;1.53;;;16.60;98.00;;;;;;5069368;28;20973;-70
2021/06/09 00:56:00;;;;;;;3.00;1.97;;;16.70;98.00;;;;;;5071798;28;20461;-69
2021/06/09 00:58:29;;;;;;;2.60;2.00;;;16.60;98.00;;;;;;5069678;28;20578;-69
2021/06/09 01:00:56;;;;;;;1.93;1.50;;;16.50;98.00;;;;;;5071955;28;20484;-69
2021/06/09 01:03:23;;;;;;;3.00;2.03;;;16.50;98.00;;;;;;5069084;28;20791;-69
2021/06/09 01:05:51;;;;;;;3.47;1.70;;;16.50;98.00;;;;;;5071827;28;20464;-70
2021/06/09 01:08:18;;;;;;;1.60;1.50;;;16.60;98.00;;;;;;5068889;28;20946;-69
2021/06/09 01:10:45;;;;;;;2.23;1.70;;;16.70;98.00;;;;;;5071988;28;20460;-69
2021/06/09 01:13:12;;;;;;;1.67;1.20;;;16.70;98.00;;;;;;5068767;28;20532;-69
2021/06/09 01:15:41;;;;;;;3.10;2.20;;;16.60;98.00;;;;;;5071655;28;20457;-71
2021/06/09 01:18:08;;;;;;;1.93;1.73;;;16.70;98.00;;;;;;5069196;28;20459;-66
2021/06/09 01:20:35;;;;;;;3.30;1.87;;;16.80;98.00;;;;;;5071519;28;20537;-68
2021/06/09 01:23:03;;;;;;;1.43;1.40;;;16.80;98.00;;;;;;5067479;28;20497;-66
2021/06/09 01:25:30;;;;;;;2.90;2.00;;;16.80;98.00;;;;;;5071367;28;20514;-66
2021/06/09 01:27:57;;;;;;;1.83;1.67;;;16.80;98.00;;;;;;5069268;28;20499;-67
2021/06/09 01:30:25;;;;;;;2.23;1.40;;;16.80;98.00;;;;;;5071241;28;21069;-66
2021/06/09 01:32:53;;;;;;;2.17;1.60;;;16.70;98.00;;;;;;5069000;28;20460;-66
2021/06/09 01:35:20;;;;;;;1.97;1.90;;;16.70;98.00;;;;;;5071366;28;20456;-66
2021/06/09 01:37:47;;;;;;;7.17;2.47;;;16.70;98.00;;;;;;5069190;28;20461;-66
2021/06/09 01:40:26;;;;;;;1.67;1.67;;;16.70;98.00;;;;;;5071005;28;20457;-66
2021/06/09 01:42:54;;;;;;;2.90;2.03;;;16.60;98.00;;;;;;5068173;28;20449;-66
2021/06/09 01:45:25;;;;;;;2.90;1.93;;;16.60;98.00;;;;;;5070691;28;20846;-66
2021/06/09 01:47:52;;;;;;;2.97;1.60;;;16.70;98.00;;;;;;5069103;28;20480;-66
2021/06/09 01:50:20;;;;;;;2.00;1.90;;;16.70;98.00;;;;;;5071344;28;20448;-66
2021/06/09 01:52:49;;;;;;;1.40;1.37;;;16.90;98.00;;;;;;5067849;28;20461;-66
2021/06/09 01:55:25;;;;;;;4.50;2.07;;;16.90;98.00;;;;;;5071217;28;20828;-66
2021/06/09 01:57:52;;;;;;;1.90;1.63;;;16.80;98.00;;;;;;5068993;28;20544;-67
2021/06/09 02:00:24;;;;;;;2.80;2.17;;;16.80;98.00;;;;;;5071254;28;20483;-66
2021/06/09 02:02:53;;;;;;;2.70;2.03;;;16.80;98.00;;;;;;5067731;28;20518;-66
2021/06/09 02:05:20;;;;;;;2.17;1.80;;;16.80;98.00;;;;;;5071159;28;20530;-66
2021/06/09 02:07:47;;;;;;;2.27;2.07;;;16.70;98.00;;;;;;5068771;28;20476;-66
2021/06/09 02:10:18;;;;;;;2.27;1.70;;;16.70;98.00;;;;;;5071113;28;20967;-65
2021/06/09 02:12:46;;;;;;;1.90;1.53;;;16.70;98.00;;;;;;5068840;28;20460;-66
2021/06/09 02:15:16;;;;;;;2.13;1.83;;;16.70;98.00;;;;;;5070990;28;20496;-66
2021/06/09 02:17:55;;;;;;;3.27;2.13;;;16.70;98.00;;;;;;5068717;28;20514;-68
2021/06/09 02:20:23;;;;;;;2.80;1.80;;;16.70;98.00;;;;;;5070796;28;20467;-66
2021/06/09 02:22:49;;;;;;;3.47;2.47;;;16.60;98.00;;;;;;5068558;28;20460;-65
2021/06/09 02:25:17;;;;;;;2.40;1.40;;;16.70;98.00;;;;;;5070782;28;20460;-66
2021/06/09 02:27:44;;;;;;;3.23;1.97;;;16.70;98.00;;;;;;5068436;28;20959;-66
2021/06/09 02:30:12;;;;;;;1.70;1.67;;;16.60;98.00;;;;;;5070902;28;20460;-68
2021/06/09 02:32:41;;;;;;;1.30;1.20;;;16.60;98.00;;;;;;5068463;28;20460;-67
2021/06/09 02:35:14;;;;;;;2.87;1.73;;;16.60;98.00;;;;;;5070915;28;20484;-66
2021/06/09 02:37:41;;;;;;;3.00;1.83;;;16.60;98.00;;;;;;5068334;28;20464;-66
2021/06/09 02:40:08;;;;;;;2.87;1.87;;;16.70;98.00;;;;;;5070682;28;20532;-65
2021/06/09 02:42:37;;;;;;;2.00;1.70;;;16.60;98.00;;;;;;5068164;28;21072;-66
2021/06/09 02:45:09;;;;;;;2.77;1.43;;;16.60;98.00;;;;;;5070710;28;20453;-66
2021/06/09 02:47:39;;;;;;;2.10;1.57;;;16.70;98.00;;;;;;5068066;28;20476;-65
2021/06/09 02:50:07;;;;;;;1.40;1.27;;;16.70;98.00;;;;;;5070686;28;20457;-66
2021/06/09 02:52:40;;;;;;;2.10;1.53;;;16.70;98.00;;;;;;5069637;28;20449;-65
2021/06/09 02:55:13;;;;;;;2.40;1.77;;;16.70;98.00;;;;;;5074474;28;20492;-65
2021/06/09 02:57:47;;;;;;;2.70;1.50;;;16.70;98.00;;;;;;5071729;28;20835;-65
2021/06/09 03:00:17;;;;;;;1.60;1.50;;;16.80;98.00;;;;;;5074501;28;20518;-66
2021/06/09 03:02:51;;;;;;;2.13;1.80;;;16.70;98.00;;;;;;5071568;28;20452;-65
2021/06/09 03:05:23;;;;;;;2.43;1.87;;;16.60;98.00;;;;;;5074186;28;20467;-65
2021/06/09 03:07:59;;;;;;;2.17;1.80;;;16.60;98.00;;;;;;5071244;28;20971;-66
2021/06/09 03:10:40;;;;;;;2.50;1.67;;;16.60;98.00;;;;;;5074009;28;20510;-65
2021/06/09 03:13:24;;;;;;;2.97;2.03;;;16.50;98.00;;;;;;5071316;28;20529;-66
2021/06/09 03:15:59;;;;;;;2.23;2.00;;;16.30;98.00;;;;;;5071507;28;20459;-66
2021/06/09 03:18:28;;;;;;;1.63;1.60;;;16.20;98.00;;;;;;5071100;28;20461;-65
2021/06/09 03:21:00;;;;;;;2.07;1.93;;;16.20;98.00;;;;;;5073853;28;20485;-65
2021/06/09 03:23:45;;;;;;;1.83;1.47;;;16.10;98.00;;;;;;5070986;28;20469;-65
2021/06/09 03:26:17;;;;;;;1.60;1.40;;;16.20;98.00;;;;;;5073829;28;20471;-65
2021/06/09 03:28:56;;;;;;;5.30;2.03;;;16.20;98.00;;;;;;5070791;28;20464;-66
2021/06/09 03:31:26;;;;;;;1.57;1.57;;;16.20;98.00;;;;;;5072949;28;20488;-65
2021/06/09 03:33:54;;;;;;;3.13;2.00;;;16.10;98.00;;;;;;5073372;28;20461;-65
2021/06/09 03:36:24;;;;;;;3.20;1.67;;;16.10;98.00;;;;;;5073447;28;20456;-65
2021/06/09 03:38:57;;;;;;;2.10;1.97;;;16.20;98.00;;;;;;5072286;28;20456;-65
2021/06/09 03:41:29;;;;;;;1.80;1.50;;;16.30;98.00;;;;;;5072374;28;20476;-66
2021/06/09 03:43:59;;;;;;;2.90;1.77;;;16.30;98.00;;;;;;5073347;28;20877;-65
2021/06/09 03:46:28;;;;;;;1.70;1.53;;;16.50;98.00;;;;;;5070434;28;20491;-66
2021/06/09 03:48:56;;;;;;;1.60;1.57;;;16.50;98.00;;;;;;5073342;28;20460;-65
2021/06/09 03:51:26;;;;;;;6.33;1.73;;;16.60;98.00;;;;;;5073534;28;20979;-65
2021/06/09 03:53:54;;;;;;;2.10;1.97;;;16.70;98.00;;;;;;5072713;28;20935;-66
2021/06/09 03:56:23;;;;;;;7.77;2.43;;;16.80;98.00;;;;;;5073342;28;20561;-66
2021/06/09 03:58:51;;;;;;;2.00;1.90;;;16.80;98.00;;;;;;5070705;28;20519;-66
2021/06/09 04:01:20;;;;;;;2.90;1.77;;;16.80;98.00;;;;;;5073139;28;20521;-65
2021/06/09 04:03:48;;;;;;;1.93;1.57;;;16.70;98.00;;;;;;5070003;28;21008;-66
2021/06/09 04:06:18;;;;;;;2.60;1.93;;;16.60;98.00;;;;;;5072914;28;20492;-65
2021/06/09 04:08:45;;;;;;;1.90;1.83;;;16.50;98.00;;;;;;5070423;28;20484;-65
2021/06/09 04:11:15;;;;;;;2.17;1.60;;;16.60;98.00;;;;;;5072932;28;20452;-66
2021/06/09 04:13:42;;;;;;;2.60;1.70;;;16.60;98.00;;;;;;5070038;28;20467;-65
2021/06/09 04:16:09;;;;;;;2.80;2.13;;;16.60;98.00;;;;;;5072482;28;20457;-66
2021/06/09 04:18:40;;;;;;;2.23;1.67;;;16.70;98.00;;;;;;5069513;28;20542;-66
2021/06/09 04:21:09;;;;;;;1.40;1.30;;;16.70;98.00;;;;;;5071686;28;20480;-66
2021/06/09 04:23:36;;;;;;;2.33;1.70;;;16.70;98.00;;;;;;5069031;28;20491;-65
2021/06/09 04:26:04;;;;;;;2.10;1.60;;;16.80;98.00;;;;;;5071677;28;20839;-66
2021/06/09 04:28:32;;;;;;;1.53;1.47;;;16.90;98.00;;;;;;5068949;28;20975;-66
2021/06/09 04:30:58;;;;;;;1.47;1.23;;;17.00;98.00;;;;;;5072234;28;20449;-65
2021/06/09 04:33:28;;;;;;;1.47;1.33;;;17.00;98.00;;;;;;5069262;28;20464;-65
2021/06/09 04:35:57;;;;;;;2.43;2.17;;;17.00;98.00;;;;;;5072219;28;21068;-65
2021/06/09 04:38:23;;;;;;;2.40;1.87;;;17.00;98.00;;;;;;5068993;28;20856;-65
2021/06/09 04:40:56;;;;;;;2.37;1.87;;;17.00;98.00;;;;;;5072373;28;20573;-66
2021/06/09 04:43:23;;;;;;;3.17;2.17;;;17.00;98.00;;;;;;5069288;28;20845;-66
2021/06/09 04:45:51;;;;;;;3.00;1.83;;;16.90;98.00;;;;;;5072240;28;20954;-65
2021/06/09 04:48:18;;;;;;;2.13;1.90;;;17.00;98.00;;;;;;5068674;28;20868;-65
2021/06/09 04:50:47;;;;;;;2.50;1.70;;;17.00;98.00;;;;;;5071901;28;20533;-65
2021/06/09 04:53:17;;;;;;;1.70;1.63;;;17.00;98.00;;;;;;5069537;28;20466;-65
2021/06/09 04:55:46;;;;;;;4.03;2.03;;;17.10;98.00;;;;;;5072225;28;20921;-65
2021/06/09 04:58:14;;;;;;;3.00;1.83;;;17.10;98.00;;;;;;5068717;28;20460;-66
2021/06/09 05:00:42;;;;;;;2.07;1.47;;;17.10;98.00;;;;;;5071750;28;20452;-66
2021/06/09 05:03:14;;;;;;;1.90;1.53;;;17.10;98.00;;;;;;5068357;28;20457;-65
2021/06/09 05:05:42;;;;;;;3.00;1.83;;;17.10;98.00;;;;;;5071622;28;20464;-65
2021/06/09 05:08:08;;;;;;;2.03;1.57;;;17.20;98.00;;;;;;5067024;28;20876;-66
2021/06/09 05:10:40;;;;;;;1.80;1.60;;;17.30;98.00;;;;;;5071692;28;20496;-66
2021/06/09 05:13:14;;;;;;;3.47;1.80;;;17.40;98.00;;;;;;5068575;28;20844;-66
2021/06/09 05:15:46;;;;;;;1.73;1.70;;;17.40;98.00;;;;;;5070901;28;20460;-66
2021/06/09 05:18:20;;;;;;;3.37;2.43;;;17.40;98.00;;;;;;5068393;28;20461;-65
2021/06/09 05:20:49;;;;;;;2.30;1.90;;;17.40;98.00;;;;;;5071435;28;20463;-66
2021/06/09 05:23:23;;;;;;;2.70;2.13;;;17.50;98.00;;;;;;5068573;28;20468;-65
2021/06/09 05:25:53;;;;;;;2.33;2.13;;;17.40;98.00;;;;;;5071611;28;20484;-65
2021/06/09 05:28:22;;;;;;;2.33;1.67;;;17.40;98.00;;;;;;5068566;28;20488;-67
2021/06/09 05:30:50;;;;;;;3.83;1.93;;;17.50;98.00;;;;;;5071647;28;20457;-66
2021/06/09 05:33:16;;;;;;;2.70;2.13;;;17.60;98.00;;;;;;5068721;28;20529;-65
2021/06/09 05:35:43;;;;;;;1.80;1.40;;;17.80;98.00;;;;;;5071486;28;20626;-66
2021/06/09 05:38:10;;;;;;;2.67;2.07;;;17.80;98.00;;;;;;5068664;28;20510;-66
2021/06/09 05:40:36;;;;;;;3.13;1.87;;;17.90;98.00;;;;;;5071351;28;20854;-65
2021/06/09 05:43:05;;;;;;;3.67;1.97;;;18.00;98.00;;;;;;5068432;28;20539;-66
2021/06/09 05:45:33;;;;;;;2.83;2.03;;;18.10;98.00;;;;;;5071311;28;20939;-66
2021/06/09 05:48:01;;;;;;;2.60;2.00;;;18.10;98.00;;;;;;5068666;28;20468;-67
2021/06/09 05:50:29;;;;;;;3.00;1.50;;;18.10;98.00;;;;;;5071396;28;20461;-66
2021/06/09 05:52:58;;;;;;;2.17;1.70;;;18.00;98.00;;;;;;5068437;28;20457;-66
2021/06/09 05:55:26;;;;;;;2.60;2.00;;;17.90;98.00;;;;;;5071212;28;20456;-66
2021/06/09 05:57:53;;;;;;;3.03;2.00;;;17.80;98.00;;;;;;5068425;28;20453;-65
2021/06/09 06:00:25;;;;;;;1.90;1.60;;;17.80;98.00;;;;;;5071218;28;20471;-66
2021/06/09 06:02:56;;;;;;;2.60;2.00;;;17.70;98.00;;;;;;5068499;28;20862;-65
2021/06/09 06:05:24;;;;;;;2.53;1.73;;;17.80;98.00;;;;;;5070925;28;20883;-65
2021/06/09 06:07:53;;;;;;;1.80;1.67;;;17.80;98.00;;;;;;5067217;28;20495;-65
2021/06/09 06:10:20;;;;;;;2.33;2.07;;;17.90;98.00;;;;;;5070912;28;20449;-65
2021/06/09 06:12:49;;;;;;;2.60;1.87;;;18.00;98.00;;;;;;5068845;28;20923;-65
2021/06/09 06:15:16;;;;;;;2.67;2.10;;;18.10;98.00;;;;;;5071278;28;20457;-66
2021/06/09 06:17:46;;;;;;;3.93;2.60;;;18.00;98.00;;;;;;5068407;28;20452;-66
2021/06/09 06:20:16;;;;;;;5.03;2.30;;;18.00;98.00;;;;;;5071237;28;20457;-65
2021/06/09 06:22:44;;;;;;;2.40;1.33;;;17.90;98.00;;;;;;5068509;28;20489;-66
2021/06/09 06:25:13;;;;;;;1.77;1.70;;;18.00;98.00;;;;;;5071012;28;20481;-66
2021/06/09 06:27:40;;;;;;;1.63;1.60;;;18.20;98.00;;;;;;5070965;28;20461;-67
2021/06/09 06:30:08;;;;;;;4.17;1.97;;;18.40;98.00;;;;;;5074853;28;20566;-66
2021/06/09 06:32:35;;;;;;;2.03;1.57;;;18.50;98.00;;;;;;5072404;28;20459;-66
2021/06/09 06:35:04;;;;;;;2.13;1.70;;;18.50;98.00;;;;;;5074166;28;20477;-66
2021/06/09 06:37:31;;;;;;;2.50;1.80;;;18.60;98.00;;;;;;5072367;28;20926;-65
2021/06/09 06:39:58;;;;;;;5.70;1.93;;;18.50;98.00;;;;;;5074579;28;20462;-66
2021/06/09 06:42:30;;;;;;;3.17;1.90;;;18.40;98.00;;;;;;5071942;28;20577;-66
2021/06/09 06:44:56;;;;;;;1.80;1.70;;;18.30;98.00;;;;;;5074411;28;20986;-65
2021/06/09 06:47:26;;;;;;;5.33;2.53;;;18.30;98.00;;;;;;5071656;28;20484;-65
2021/06/09 06:49:53;;;;;;;2.53;2.33;;;18.30;98.00;;;;;;5074115;28;20514;-66
2021/06/09 06:52:23;;;;;;;2.57;1.57;;;18.30;98.00;;;;;;5071735;28;21146;-65
2021/06/09 06:54:49;;;;;;;1.70;1.43;;;18.30;98.00;;;;;;5074369;28;20510;-66
2021/06/09 06:57:16;;;;;;;2.40;2.00;;;18.20;98.00;;;;;;5071580;28;20453;-65
2021/06/09 06:59:42;;;;;;;2.80;2.20;;;18.20;98.00;;;;;;5074117;28;20453;-67
2021/06/09 07:02:10;;;;;;;1.50;1.50;;;18.30;98.00;;;;;;5071289;28;20516;-66
2021/06/09 07:04:37;;;;;;;2.40;1.57;;;18.60;98.00;;;;;;5074032;28;21012;-67
2021/06/09 07:07:03;;;;;;;1.67;1.30;;;18.80;98.00;;;;;;5069896;28;20461;-67
2021/06/09 07:09:31;;;;;;;2.80;1.97;;;19.20;98.00;;;;;;5073944;28;20456;-66
2021/06/09 07:11:59;;;;;;;2.17;1.90;;;19.50;98.00;;;;;;5071158;28;20492;-66
2021/06/09 07:14:29;;;;;;;1.97;1.40;;;19.70;98.00;;;;;;5073756;28;20449;-68
2021/06/09 07:16:56;;;;;;;2.37;1.73;;;20.00;98.00;;;;;;5071013;28;20540;-67
2021/06/09 07:19:23;;;;;;;2.17;2.07;;;20.00;98.00;;;;;;5073731;28;20453;-68
2021/06/09 07:21:50;;;;;;;2.60;2.00;;;19.70;98.00;;;;;;5070722;28;20510;-70
2021/06/09 07:24:17;;;;;;;3.03;2.30;;;19.40;98.00;;;;;;5074044;28;20499;-67
2021/06/09 07:26:46;;;;;;;2.70;1.87;;;19.10;98.00;;;;;;5073937;28;20461;-67
2021/06/09 07:29:17;;;;;;;1.33;1.30;;;19.10;98.00;;;;;;5072832;28;20492;-66
2021/06/09 07:31:47;;;;;;;4.23;2.30;;;19.10;98.00;;;;;;5073769;28;21174;-67
2021/06/09 07:34:14;;;;;;;2.43;1.90;;;19.10;98.00;;;;;;5071914;28;20492;-66
2021/06/09 07:36:44;;;;;;;2.03;1.63;;;19.10;98.00;;;;;;5073089;28;20468;-66
2021/06/09 07:39:17;;;;;;;3.30;2.13;;;19.10;98.00;;;;;;5070028;28;20814;-67
2021/06/09 07:41:45;;;;;;;1.50;1.30;;;19.10;98.00;;;;;;5071898;28;20523;-68
2021/06/09 07:44:14;;;;;;;4.80;2.50;;;19.00;98.00;;;;;;5070183;28;20491;-68
2021/06/09 07:46:43;;;;;;;2.90;1.97;;;19.00;98.00;;;;;;5072951;28;20495;-70
2021/06/09 07:49:11;;;;;;;3.77;2.83;;;19.00;98.00;;;;;;5069629;28;20452;-68
2021/06/09 07:51:38;;;;;;;1.80;1.67;;;19.30;98.00;;;;;;5072812;28;20922;-68
2021/06/09 07:54:06;;;;;;;8.53;1.93;;;19.30;98.00;;;;;;5069305;28;20483;-68
2021/06/09 07:56:35;;;;;;;4.07;2.13;;;19.40;98.00;;;;;;5071277;28;20510;-69
2021/06/09 07:59:08;;;;;;;2.47;1.93;;;19.40;98.00;;;;;;5069667;28;20464;-70
2021/06/09 08:01:36;;;;;;;5.50;2.30;;;19.40;98.00;;;;;;5072423;28;20527;-71
2021/06/09 08:04:04;;;;;;;2.00;1.60;;;19.40;98.00;;;;;;5069263;28;20455;-69
2021/06/09 08:06:30;;;;;;;4.10;1.90;;;19.40;98.00;;;;;;5072605;28;20471;-69
2021/06/09 08:08:57;;;;;;;4.10;2.10;;;19.60;98.00;;;;;;5069632;28;20987;-70
2021/06/09 08:11:24;;;;;;;4.13;1.70;;;19.70;98.00;;;;;;5072354;28;20956;-70
2021/06/09 08:13:51;;;;;;;1.93;1.50;;;19.90;98.00;;;;;;5069595;28;20496;-70
2021/06/09 08:16:20;;;;;;;2.60;1.80;;;20.10;98.00;;;;;;5072201;28;20959;-71
2021/06/09 08:18:48;;;;;;;3.43;2.17;;;20.20;98.00;;;;;;5069401;28;20450;-70
2021/06/09 08:21:16;;;;;;;2.60;1.90;;;20.30;98.00;;;;;;5072260;28;20542;-70
2021/06/09 08:23:45;;;;;;;3.07;2.40;;;20.30;98.00;;;;;;5069230;28;20834;-70
2021/06/09 08:26:13;;;;;;;3.93;2.53;;;20.20;98.00;;;;;;5072020;28;20952;-70
2021/06/09 08:28:43;;;;;;;2.40;1.80;;;20.20;98.00;;;;;;5069503;28;20453;-71
2021/06/09 08:31:11;;;;;;;5.07;1.87;;;20.20;98.00;;;;;;5071895;28;20472;-68
2021/06/09 08:33:41;;;;;;;2.70;2.00;;;20.30;98.00;;;;;;5069101;28;20464;-68
2021/06/09 08:36:09;;;;;;;4.47;2.70;;;20.60;98.00;;;;;;5071781;28;21143;-66
2021/06/09 08:38:36;;;;;;;2.60;1.80;;;20.70;98.00;;;;;;5069038;28;20453;-70
2021/06/09 08:41:05;;;;;;;3.23;2.10;;;20.80;98.00;;;;;;5071795;28;20472;-70
2021/06/09 08:43:34;;;;;;;4.20;2.27;;;20.90;98.00;;;;;;5068939;28;20484;-69
2021/06/09 08:46:02;;;;;;;3.80;2.57;;;21.00;98.00;;;;;;5071885;28;20511;-69
2021/06/09 08:48:30;;;;;;;4.57;2.30;;;21.10;98.00;;;;;;5069126;28;20459;-68
2021/06/09 08:50:59;;;;;;;2.20;2.00;;;21.20;98.00;;;;;;5070891;28;20521;-68
2021/06/09 08:53:26;;;;;;;1.40;1.40;;;21.30;98.00;;;;;;5068581;28;20571;-69
2021/06/09 08:55:54;;;;;;;2.33;1.80;;;21.30;98.00;;;;;;5070383;28;20461;-70
2021/06/09 08:58:23;;;;;;;4.50;2.17;;;21.40;98.00;;;;;;5068727;28;20465;-70
2021/06/09 09:00:56;;;;;;;1.97;1.70;;;21.30;98.00;;;;;;5070446;28;20545;-70
2021/06/09 09:03:23;;;;;;;2.00;1.70;;;21.30;98.00;;;;;;5067898;28;20445;-70
2021/06/09 09:05:50;;;;;;;2.63;2.47;;;21.30;98.00;;;;;;5071383;28;20544;-69
2021/06/09 09:08:18;;;;;;;3.73;2.80;;;21.40;98.00;;;;;;5068077;28;20547;-71
2021/06/09 09:10:45;;;;;;;2.57;2.23;;;21.40;98.00;;;;;;5071270;28;20455;-70
2021/06/09 09:13:12;;;;;;;4.20;2.70;;;21.40;98.00;;;;;;5067126;28;21019;-73
2021/06/09 09:15:40;;;;;;;2.67;2.27;;;21.40;98.00;;;;;;5070950;28;20502;-71
2021/06/09 09:18:09;;;;;;;4.13;2.80;;;21.60;98.00;;;;;;5068283;28;20506;-70
2021/06/09 09:20:40;;;;;;;1.63;1.50;;;21.80;98.00;;;;;;5071159;28;21254;-70
2021/06/09 09:23:20;;;;;;;3.07;1.97;;;21.90;98.00;;;;;;5067965;28;20495;-72
2021/06/09 09:25:47;;;;;;;2.90;2.67;;;21.90;98.00;;;;;;5070835;28;20494;-69
2021/06/09 09:28:24;;;;;;;5.93;2.83;;;22.00;98.00;;;;;;5068594;28;20460;-70
2021/06/09 09:30:51;;;;;;;3.43;2.23;;;22.30;98.00;;;;;;5070758;28;20758;-73
2021/06/09 09:33:20;;;;;;;3.37;2.37;;;22.40;98.00;;;;;;5068075;28;20989;-74
2021/06/09 09:35:48;;;;;;;3.80;2.50;;;22.60;98.00;;;;;;5070730;28;20452;-73
2021/06/09 09:38:20;;;;;;;3.07;2.20;;;22.90;98.00;;;;;;5068351;28;20461;-73
2021/06/09 09:41:07;;;;;;;3.50;2.83;;;23.10;98.00;;;;;;5070998;28;20460;-73
2021/06/09 09:44:01;;;;;;;2.77;2.27;;;23.10;98.00;;;;;;5067954;28;20460;-73
2021/06/09 09:46:31;;;;;;;5.07;2.67;;;23.20;98.00;;;;;;5070914;28;20473;-72
2021/06/09 09:49:07;;;;;;;4.20;2.73;;;23.30;98.00;;;;;;5068664;28;21049;-73
2021/06/09 09:51:36;;;;;;;2.23;2.10;;;23.60;98.00;;;;;;5070860;28;20460;-73
2021/06/09 09:54:06;;;;;;;4.00;2.60;;;23.40;98.00;;;;;;5068127;28;20865;-74
2021/06/09 09:56:34;;;;;;;4.00;2.70;;;23.30;98.00;;;;;;5070763;28;20954;-75
2021/06/09 09:59:05;;;;;;;2.77;2.50;;;23.40;98.00;;;;;;5068063;28;20453;-73
2021/06/09 10:01:34;;;;;;;2.90;1.83;;;23.40;98.00;;;;;;5072338;28;20480;-73
2021/06/09 10:04:03;;;;;;;3.13;2.30;;;23.60;98.00;;;;;;5071815;28;21029;-73
2021/06/09 10:06:32;;;;;;;3.10;2.40;;;23.70;98.00;;;;;;5074670;28;20453;-73
2021/06/09 10:09:09;;;;;;;3.13;2.40;;;23.70;98.00;;;;;;5072014;28;20464;-74
2021/06/09 10:11:39;;;;;;;3.53;2.57;;;23.90;98.00;;;;;;5074614;28;20987;-74
2021/06/09 10:14:19;;;;;;;5.17;2.60;;;24.10;98.00;;;;;;5071264;28;20463;-73
2021/06/09 10:16:48;;;;;;;3.83;2.17;;;24.30;98.00;;;;;;5074331;28;20459;-73
2021/06/09 10:19:16;;;;;;;3.10;2.43;;;24.50;98.00;;;;;;5071768;28;20474;-73
2021/06/09 10:21:49;;;;;;;3.43;2.50;;;24.50;98.00;;;;;;5074490;28;20487;-74
2021/06/09 10:24:18;;;;;;;3.30;2.53;;;24.60;98.00;;;;;;5071484;28;20484;-73
2021/06/09 10:26:52;;;;;;;5.57;2.37;;;24.50;98.00;;;;;;5074090;28;20463;-73
2021/06/09 10:29:21;;;;;;;4.23;3.00;;;24.50;98.00;;;;;;5071585;28;20946;-73
2021/06/09 10:31:49;;;;;;;5.47;2.40;;;24.70;98.00;;;;;;5074205;28;20457;-74
2021/06/09 10:34:16;;;;;;;3.47;2.07;;;24.80;98.00;;;;;;5071298;28;20483;-74
2021/06/09 10:36:45;;;;;;;2.70;2.13;;;24.90;98.00;;;;;;5074287;28;20464;-73
2021/06/09 10:39:14;;;;;;;2.77;2.60;;;25.00;98.00;;;;;;5071387;28;21075;-73
2021/06/09 10:41:45;;;;;;;2.57;1.87;;;25.30;98.00;;;;;;5074020;28;21032;-73
2021/06/09 10:44:14;;;;;;;2.47;1.97;;;25.40;98.00;;;;;;5071073;28;20456;-73
2021/06/09 10:46:44;;;;;;;5.47;2.50;;;25.60;97.90;;;;;;5074021;28;20456;-74
2021/06/09 10:49:14;;;;;;;3.97;2.43;;;25.70;98.00;;;;;;5071048;28;20502;-73
2021/06/09 10:51:41;;;;;;;2.43;1.83;;;25.90;98.00;;;;;;5073790;28;20449;-73
2021/06/09 10:54:12;;;;;;;2.27;1.90;;;25.90;97.00;;;;;;5069166;28;20514;-73
2021/06/09 10:56:44;;;;;;;2.60;1.90;;;25.90;97.10;;;;;;5073704;28;20461;-73
2021/06/09 10:59:14;;;;;;;3.27;1.93;;;25.70;98.00;;;;;;5070836;28;20457;-73
2021/06/09 11:01:40;;;;;;;2.80;1.83;;;25.70;98.00;;;;;;5073271;28;20987;-73
2021/06/09 11:04:08;;;;;;;2.20;1.80;;;25.80;98.00;;;;;;5070728;28;21000;-74
2021/06/09 11:06:39;;;;;;;3.77;2.23;;;26.00;97.50;;;;;;5073492;28;20954;-74
2021/06/09 11:09:18;;;;;;;3.83;2.20;;;26.20;96.60;;;;;;5071023;28;20942;-72
2021/06/09 11:11:49;;;;;;;2.30;1.93;;;26.20;97.00;;;;;;5073770;28;20487;-74
2021/06/09 11:14:23;;;;;;;4.00;2.40;;;26.50;97.10;;;;;;5069674;28;20461;-69
2021/06/09 11:16:52;;;;;;;3.00;2.40;;;26.70;95.40;;;;;;5073271;28;20471;-75
2021/06/09 11:19:44;;;;;;;3.53;2.70;;;27.00;95.60;;;;;;5070779;28;20467;-75
2021/06/09 11:22:20;;;;;;;2.53;2.13;;;27.30;94.40;;;;;;5072516;28;20493;-74
2021/06/09 11:25:08;;;;;;;2.47;2.23;;;27.60;92.30;;;;;;5073298;28;21120;-74
2021/06/09 11:27:37;;;;;;;2.70;2.10;;;27.70;92.80;;;;;;5070410;28;20544;-76
2021/06/09 11:30:41;;;;;;;1.70;1.57;;;28.00;91.50;;;;;;5073225;28;20518;-75
2021/06/09 11:33:09;;;;;;;2.97;2.30;;;28.20;89.50;;;;;;5070215;28;20463;-74
2021/06/09 11:35:47;;;;;;;2.40;1.90;;;28.40;89.20;;;;;;5072975;28;21119;-75
2021/06/09 11:38:32;;;;;;;2.33;2.17;;;28.30;90.40;;;;;;5069681;28;20514;-75
2021/06/09 11:41:02;;;;;;;2.80;2.20;;;28.50;89.20;;;;;;5055043;28;20445;-74
2021/06/09 11:43:37;;;;;;;2.40;2.03;;;28.80;88.20;;;;;;5068429;28;20523;-73
2021/06/09 11:46:05;;;;;;;5.10;3.00;;;29.00;86.80;;;;;;5072422;28;21044;-74
2021/06/09 11:48:33;;;;;;;2.27;1.90;;;29.10;86.60;;;;;;5070096;28;20460;-74
2021/06/09 11:51:38;;;;;;;3.67;2.33;;;29.10;87.50;;;;;;5072702;28;20464;-72
2021/06/09 11:54:16;;;;;;;1.80;1.77;;;29.20;87.60;;;;;;5069525;28;20449;-71
2021/06/09 11:56:44;;;;;;;3.07;2.23;;;29.50;85.60;;;;;;5072536;28;20544;-72
2021/06/09 11:59:27;;;;;;;2.80;2.10;;;29.30;86.50;;;;;;5069835;28;20917;-72
2021/06/09 12:01:59;;;;;;;2.40;1.93;;;29.20;83.70;;;;;;5071868;28;20534;-72
2021/06/09 12:04:28;;;;;;;2.97;2.00;;;29.40;83.90;;;;;;5068906;28;20461;-71
2021/06/09 12:06:59;;;;;;;3.47;2.30;;;29.70;85.20;;;;;;5071704;28;20456;-72
2021/06/09 12:09:27;;;;;;;3.97;2.27;;;29.80;83.70;;;;;;5069170;28;20510;-73
2021/06/09 12:11:57;;;;;;;2.47;2.00;;;29.70;83.80;;;;;;5072084;28;20492;-72
2021/06/09 12:14:28;;;;;;;2.07;1.80;;;29.60;85.00;;;;;;5069198;28;20449;-72
2021/06/09 12:16:57;;;;;;;2.63;2.10;;;29.30;85.00;;;;;;5072331;28;20456;-73
2021/06/09 12:19:32;;;;;;;2.60;2.00;;;29.60;84.30;;;;;;5068716;28;20503;-72
2021/06/09 12:22:06;;;;;;;3.33;2.17;;;29.60;81.80;;;;;;5071850;28;20507;-73
2021/06/09 12:24:34;;;;;;;2.20;1.87;;;29.70;82.60;;;;;;5068594;28;20494;-69
2021/06/09 12:27:05;;;;;;;2.57;2.20;;;29.60;82.10;;;;;;5071927;28;20488;-71
2021/06/09 12:29:34;;;;;;;4.27;2.17;;;29.50;84.80;;;;;;5066990;28;20460;-70
2021/06/09 12:32:23;;;;;;;2.83;2.10;;;28.80;87.90;;;;;;5069875;28;20452;-72
2021/06/09 12:34:59;;;;;;;2.60;1.97;;;28.30;90.30;;;;;;5071551;28;20527;-74
2021/06/09 12:37:28;;;;;;;2.63;2.00;;;27.80;96.70;;;;;;5069841;28;20488;-73
2021/06/09 12:40:01;;;;;;;2.50;2.00;;;27.10;98.00;;;;;;5071511;28;20449;-70
2021/06/09 12:42:29;;;;;;;1.90;1.80;;;26.00;98.00;;;;;;5069403;28;20488;-71
2021/06/09 12:44:58;;;;;;;3.03;2.07;;;24.80;98.00;;;;;;5069983;28;20499;-69
2021/06/09 12:47:30;;;;;;;2.20;2.00;;;24.10;98.00;;;;;;5067649;28;20448;-70
2021/06/09 12:50:22;;;;;;;2.17;2.03;;;23.80;98.00;;;;;;5071150;28;20885;-70
2021/06/09 12:52:50;;;;;;;2.63;1.50;;;23.40;98.00;;;;;;5068333;28;20453;-75
2021/06/09 12:55:19;;;;;;;2.57;2.40;;;23.10;98.00;;;;;;5071040;28;20457;-71
2021/06/09 12:57:47;;;;;;;2.00;1.90;;;22.90;98.00;;;;;;5068674;28;20719;-73
2021/06/09 13:00:25;;;;;;;2.33;1.63;;;22.60;98.00;;;;;;5071438;28;20460;-73
2021/06/09 13:03:07;;;;;;;2.60;1.83;;;22.40;98.00;;;;;;5068636;28;20518;-72